sensor_id;sensor_type;location;lat;lon;timestamp;temperature;humidity
4687;DHT22;2357;47.316;-1.348;2022-09-29T00:00:51;11.30;99.90
4687;DHT22;2357;47.316;-1.348;2022-09-29T00:03:18;11.30;99.90
4687;DHT22;2357;47.316;-1.348;2022-09-29T00:32:41;11.00;99.90
4687;DHT22;2357;47.316;-1.348;2022-09-29T00:35:08;11.00;99.90
4687;DHT22;2357;47.316;-1.348;2022-09-29T00:37:35;11.00;99.90
4687;DHT22;2357;47.316;-1.348;2022-09-29T00:40:00;11.00;99.90
4687;DHT22;2357;47.316;-1.348;2022-09-29T00:42:26;10.90;99.90
4687;DHT22;2357;47.316;-1.348;2022-09-29T00:45:20;10.90;99.90
4687;DHT22;2357;47.316;-1.348;2022-09-29T00:48:02;10.90;99.90
4687;DHT22;2357;47.316;-1.348;2022-09-29T00:50:51;10.90;99.90
4687;DHT22;2357;47.316;-1.348;2022-09-29T00:53:18;10.80;99.90
4687;DHT22;2357;47.316;-1.348;2022-09-29T00:55:49;10.90;99.90
4687;DHT22;2357;47.316;-1.348;2022-09-29T00:58:39;10.90;99.90
4687;DHT22;2357;47.316;-1.348;2022-09-29T01:01:06;10.80;99.90
4687;DHT22;2357;47.316;-1.348;2022-09-29T01:03:37;10.80;99.90
4687;DHT22;2357;47.316;-1.348;2022-09-29T01:06:09;10.80;99.90
4687;DHT22;2357;47.316;-1.348;2022-09-29T01:11:12;10.80;99.90
4687;DHT22;2357;47.316;-1.348;2022-09-29T01:13:39;10.80;99.90
4687;DHT22;2357;47.316;-1.348;2022-09-29T01:16:06;10.70;99.90
4687;DHT22;2357;47.316;-1.348;2022-09-29T01:18:32;10.70;99.90
4687;DHT22;2357;47.316;-1.348;2022-09-29T01:21:26;10.70;99.90
4687;DHT22;2357;47.316;-1.348;2022-09-29T01:29:50;10.70;99.90
4687;DHT22;2357;47.316;-1.348;2022-09-29T01:40:32;10.60;99.90
4687;DHT22;2357;47.316;-1.348;2022-09-29T01:43:19;10.50;99.90
4687;DHT22;2357;47.316;-1.348;2022-09-29T01:45:57;10.50;99.90
4687;DHT22;2357;47.316;-1.348;2022-09-29T01:48:28;10.40;99.90
4687;DHT22;2357;47.316;-1.348;2022-09-29T01:50:58;10.40;99.90
4687;DHT22;2357;47.316;-1.348;2022-09-29T01:53:29;10.40;99.90
4687;DHT22;2357;47.316;-1.348;2022-09-29T01:56:02;10.50;99.90
4687;DHT22;2357;47.316;-1.348;2022-09-29T01:58:52;10.40;99.90
4687;DHT22;2357;47.316;-1.348;2022-09-29T02:01:22;10.40;99.90
4687;DHT22;2357;47.316;-1.348;2022-09-29T02:04:00;10.40;99.90
4687;DHT22;2357;47.316;-1.348;2022-09-29T02:06:37;10.30;99.90
4687;DHT22;2357;47.316;-1.348;2022-09-29T02:09:14;10.30;99.90
4687;DHT22;2357;47.316;-1.348;2022-09-29T02:11:42;10.30;99.90
4687;DHT22;2357;47.316;-1.348;2022-09-29T02:14:18;10.30;99.90
4687;DHT22;2357;47.316;-1.348;2022-09-29T02:16:48;10.30;99.90
4687;DHT22;2357;47.316;-1.348;2022-09-29T02:19:20;10.20;99.90
4687;DHT22;2357;47.316;-1.348;2022-09-29T02:21:47;10.30;99.90
4687;DHT22;2357;47.316;-1.348;2022-09-29T02:24:14;10.30;99.90
4687;DHT22;2357;47.316;-1.348;2022-09-29T02:26:40;10.30;99.90
4687;DHT22;2357;47.316;-1.348;2022-09-29T02:29:07;10.30;99.90
4687;DHT22;2357;47.316;-1.348;2022-09-29T02:31:35;10.20;99.90
4687;DHT22;2357;47.316;-1.348;2022-09-29T02:34:03;10.30;99.90
4687;DHT22;2357;47.316;-1.348;2022-09-29T02:58:17;10.10;99.90
4687;DHT22;2357;47.316;-1.348;2022-09-29T03:00:43;10.10;99.90
4687;DHT22;2357;47.316;-1.348;2022-09-29T03:03:09;10.20;99.90
4687;DHT22;2357;47.316;-1.348;2022-09-29T03:05:35;10.20;99.90
4687;DHT22;2357;47.316;-1.348;2022-09-29T03:08:01;10.20;99.90
4687;DHT22;2357;47.316;-1.348;2022-09-29T03:10:27;10.20;99.90
4687;DHT22;2357;47.316;-1.348;2022-09-29T03:12:52;10.20;99.90
4687;DHT22;2357;47.316;-1.348;2022-09-29T03:15:18;10.20;99.90
4687;DHT22;2357;47.316;-1.348;2022-09-29T03:17:43;10.20;99.90
4687;DHT22;2357;47.316;-1.348;2022-09-29T03:20:09;10.20;99.90
4687;DHT22;2357;47.316;-1.348;2022-09-29T03:22:35;10.20;99.90
4687;DHT22;2357;47.316;-1.348;2022-09-29T03:25:01;10.30;99.90
4687;DHT22;2357;47.316;-1.348;2022-09-29T03:27:27;10.30;99.90
4687;DHT22;2357;47.316;-1.348;2022-09-29T03:29:53;10.30;99.90
4687;DHT22;2357;47.316;-1.348;2022-09-29T03:32:19;10.30;99.90
4687;DHT22;2357;47.316;-1.348;2022-09-29T03:34:45;10.30;99.90
4687;DHT22;2357;47.316;-1.348;2022-09-29T03:37:10;10.30;99.90
4687;DHT22;2357;47.316;-1.348;2022-09-29T03:39:36;10.20;99.90
4687;DHT22;2357;47.316;-1.348;2022-09-29T03:42:02;10.30;99.90
4687;DHT22;2357;47.316;-1.348;2022-09-29T03:44:28;10.20;99.90
4687;DHT22;2357;47.316;-1.348;2022-09-29T03:46:53;10.20;99.90
4687;DHT22;2357;47.316;-1.348;2022-09-29T03:49:19;10.30;99.90
4687;DHT22;2357;47.316;-1.348;2022-09-29T03:51:45;10.20;99.90
4687;DHT22;2357;47.316;-1.348;2022-09-29T03:54:11;10.20;99.90
4687;DHT22;2357;47.316;-1.348;2022-09-29T03:56:36;10.20;99.90
4687;DHT22;2357;47.316;-1.348;2022-09-29T03:59:03;10.20;99.90
4687;DHT22;2357;47.316;-1.348;2022-09-29T04:01:30;10.20;99.90
4687;DHT22;2357;47.316;-1.348;2022-09-29T04:03:57;10.20;99.90
4687;DHT22;2357;47.316;-1.348;2022-09-29T04:06:22;10.10;99.90
4687;DHT22;2357;47.316;-1.348;2022-09-29T04:08:48;10.10;99.90
4687;DHT22;2357;47.316;-1.348;2022-09-29T04:11:14;10.10;99.90
4687;DHT22;2357;47.316;-1.348;2022-09-29T04:13:40;10.10;99.90
4687;DHT22;2357;47.316;-1.348;2022-09-29T04:16:06;10.00;99.90
4687;DHT22;2357;47.316;-1.348;2022-09-29T04:18:31;10.00;99.90
4687;DHT22;2357;47.316;-1.348;2022-09-29T04:20:58;9.90;99.90
4687;DHT22;2357;47.316;-1.348;2022-09-29T04:23:28;9.90;99.90
4687;DHT22;2357;47.316;-1.348;2022-09-29T04:25:58;9.90;99.90
4687;DHT22;2357;47.316;-1.348;2022-09-29T04:28:24;9.90;99.90
4687;DHT22;2357;47.316;-1.348;2022-09-29T04:30:50;9.90;99.90
4687;DHT22;2357;47.316;-1.348;2022-09-29T04:33:16;9.90;99.90
4687;DHT22;2357;47.316;-1.348;2022-09-29T04:35:42;9.90;99.90
4687;DHT22;2357;47.316;-1.348;2022-09-29T04:38:08;9.90;99.90
4687;DHT22;2357;47.316;-1.348;2022-09-29T04:40:34;9.90;99.90
4687;DHT22;2357;47.316;-1.348;2022-09-29T04:43:00;9.90;99.90
4687;DHT22;2357;47.316;-1.348;2022-09-29T04:45:26;9.80;99.90
4687;DHT22;2357;47.316;-1.348;2022-09-29T04:47:52;9.80;99.90
4687;DHT22;2357;47.316;-1.348;2022-09-29T04:50:18;9.80;99.90
4687;DHT22;2357;47.316;-1.348;2022-09-29T04:52:43;9.80;99.90
4687;DHT22;2357;47.316;-1.348;2022-09-29T04:55:10;9.80;99.90
4687;DHT22;2357;47.316;-1.348;2022-09-29T04:57:40;9.80;99.90
4687;DHT22;2357;47.316;-1.348;2022-09-29T05:00:08;9.70;99.90
4687;DHT22;2357;47.316;-1.348;2022-09-29T05:02:35;9.70;99.90
4687;DHT22;2357;47.316;-1.348;2022-09-29T05:05:01;9.70;99.90
4687;DHT22;2357;47.316;-1.348;2022-09-29T05:07:27;9.70;99.90
4687;DHT22;2357;47.316;-1.348;2022-09-29T05:09:53;9.60;99.90
4687;DHT22;2357;47.316;-1.348;2022-09-29T05:12:18;9.60;99.90
4687;DHT22;2357;47.316;-1.348;2022-09-29T05:14:45;9.60;99.90
4687;DHT22;2357;47.316;-1.348;2022-09-29T05:17:11;9.60;99.90
4687;DHT22;2357;47.316;-1.348;2022-09-29T05:19:37;9.60;99.90
4687;DHT22;2357;47.316;-1.348;2022-09-29T05:22:02;9.60;99.90
4687;DHT22;2357;47.316;-1.348;2022-09-29T05:24:28;9.50;99.90
4687;DHT22;2357;47.316;-1.348;2022-09-29T05:26:54;9.50;99.90
4687;DHT22;2357;47.316;-1.348;2022-09-29T05:29:19;9.50;99.90
4687;DHT22;2357;47.316;-1.348;2022-09-29T05:31:45;9.50;99.90
4687;DHT22;2357;47.316;-1.348;2022-09-29T05:34:11;9.50;99.90
4687;DHT22;2357;47.316;-1.348;2022-09-29T05:36:37;9.40;99.90
4687;DHT22;2357;47.316;-1.348;2022-09-29T05:39:02;9.40;99.90
4687;DHT22;2357;47.316;-1.348;2022-09-29T05:41:28;9.40;99.90
4687;DHT22;2357;47.316;-1.348;2022-09-29T05:43:54;9.40;99.90
4687;DHT22;2357;47.316;-1.348;2022-09-29T05:46:21;9.40;99.90
4687;DHT22;2357;47.316;-1.348;2022-09-29T05:48:48;9.40;99.90
4687;DHT22;2357;47.316;-1.348;2022-09-29T05:51:16;9.40;99.90
4687;DHT22;2357;47.316;-1.348;2022-09-29T05:53:42;9.40;99.90
4687;DHT22;2357;47.316;-1.348;2022-09-29T05:56:10;9.40;99.90
4687;DHT22;2357;47.316;-1.348;2022-09-29T05:58:37;9.40;99.90
4687;DHT22;2357;47.316;-1.348;2022-09-29T06:01:15;9.40;99.90
4687;DHT22;2357;47.316;-1.348;2022-09-29T06:03:41;9.40;99.90
4687;DHT22;2357;47.316;-1.348;2022-09-29T06:06:13;9.40;99.90
4687;DHT22;2357;47.316;-1.348;2022-09-29T06:08:39;9.30;99.90
4687;DHT22;2357;47.316;-1.348;2022-09-29T06:11:11;9.30;99.90
4687;DHT22;2357;47.316;-1.348;2022-09-29T06:13:38;9.30;99.90
4687;DHT22;2357;47.316;-1.348;2022-09-29T06:16:04;9.30;99.90
4687;DHT22;2357;47.316;-1.348;2022-09-29T06:18:30;9.30;99.90
4687;DHT22;2357;47.316;-1.348;2022-09-29T06:21:04;9.30;99.90
4687;DHT22;2357;47.316;-1.348;2022-09-29T06:23:30;9.40;99.90
4687;DHT22;2357;47.316;-1.348;2022-09-29T06:25:57;9.50;99.90
4687;DHT22;2357;47.316;-1.348;2022-09-29T06:28:24;9.50;99.90
4687;DHT22;2357;47.316;-1.348;2022-09-29T06:30:49;9.40;99.90
4687;DHT22;2357;47.316;-1.348;2022-09-29T06:33:15;9.50;99.90
4687;DHT22;2357;47.316;-1.348;2022-09-29T06:35:47;9.60;99.90
4687;DHT22;2357;47.316;-1.348;2022-09-29T06:38:32;9.60;99.90
4687;DHT22;2357;47.316;-1.348;2022-09-29T06:40:58;9.70;99.90
4687;DHT22;2357;47.316;-1.348;2022-09-29T06:43:23;9.70;99.90
4687;DHT22;2357;47.316;-1.348;2022-09-29T06:45:49;9.80;99.90
4687;DHT22;2357;47.316;-1.348;2022-09-29T06:48:15;9.90;99.90
4687;DHT22;2357;47.316;-1.348;2022-09-29T06:50:40;9.90;99.90
4687;DHT22;2357;47.316;-1.348;2022-09-29T06:53:06;10.00;99.90
4687;DHT22;2357;47.316;-1.348;2022-09-29T06:55:31;10.10;99.90
4687;DHT22;2357;47.316;-1.348;2022-09-29T06:57:57;10.10;99.90
4687;DHT22;2357;47.316;-1.348;2022-09-29T07:00:23;10.20;99.90
4687;DHT22;2357;47.316;-1.348;2022-09-29T07:02:48;10.20;99.90
4687;DHT22;2357;47.316;-1.348;2022-09-29T07:05:14;10.20;99.90
4687;DHT22;2357;47.316;-1.348;2022-09-29T07:07:40;10.20;99.90
4687;DHT22;2357;47.316;-1.348;2022-09-29T07:10:07;10.30;99.90
4687;DHT22;2357;47.316;-1.348;2022-09-29T07:12:33;10.30;99.90
4687;DHT22;2357;47.316;-1.348;2022-09-29T07:14:59;10.30;99.90
4687;DHT22;2357;47.316;-1.348;2022-09-29T07:17:25;10.30;99.90
4687;DHT22;2357;47.316;-1.348;2022-09-29T07:19:50;10.30;99.90
4687;DHT22;2357;47.316;-1.348;2022-09-29T07:22:19;10.40;99.90
4687;DHT22;2357;47.316;-1.348;2022-09-29T07:24:44;10.40;99.90
4687;DHT22;2357;47.316;-1.348;2022-09-29T07:27:12;10.40;99.90
4687;DHT22;2357;47.316;-1.348;2022-09-29T07:29:37;10.40;99.90
4687;DHT22;2357;47.316;-1.348;2022-09-29T07:32:03;10.40;99.90
4687;DHT22;2357;47.316;-1.348;2022-09-29T07:34:29;10.50;99.90
4687;DHT22;2357;47.316;-1.348;2022-09-29T07:36:54;10.60;99.90
4687;DHT22;2357;47.316;-1.348;2022-09-29T07:39:20;10.70;99.90
4687;DHT22;2357;47.316;-1.348;2022-09-29T07:41:47;10.70;99.90
4687;DHT22;2357;47.316;-1.348;2022-09-29T07:44:12;10.80;99.90
4687;DHT22;2357;47.316;-1.348;2022-09-29T07:46:38;10.80;99.90
4687;DHT22;2357;47.316;-1.348;2022-09-29T07:49:04;10.80;99.90
4687;DHT22;2357;47.316;-1.348;2022-09-29T07:51:29;10.90;99.90
4687;DHT22;2357;47.316;-1.348;2022-09-29T07:54:00;11.00;99.90
4687;DHT22;2357;47.316;-1.348;2022-09-29T07:56:26;11.10;99.90
4687;DHT22;2357;47.316;-1.348;2022-09-29T07:58:51;11.10;99.90
4687;DHT22;2357;47.316;-1.348;2022-09-29T08:01:18;11.10;99.90
4687;DHT22;2357;47.316;-1.348;2022-09-29T08:03:49;11.20;99.90
4687;DHT22;2357;47.316;-1.348;2022-09-29T08:06:15;11.20;99.90
4687;DHT22;2357;47.316;-1.348;2022-09-29T08:08:41;11.30;99.90
4687;DHT22;2357;47.316;-1.348;2022-09-29T08:11:12;11.30;99.90
4687;DHT22;2357;47.316;-1.348;2022-09-29T08:13:38;11.30;99.90
4687;DHT22;2357;47.316;-1.348;2022-09-29T08:16:06;11.40;99.90
4687;DHT22;2357;47.316;-1.348;2022-09-29T08:18:33;11.50;99.90
4687;DHT22;2357;47.316;-1.348;2022-09-29T08:21:00;11.60;99.90
4687;DHT22;2357;47.316;-1.348;2022-09-29T08:23:26;11.70;99.90
4687;DHT22;2357;47.316;-1.348;2022-09-29T08:26:03;11.70;99.90
4687;DHT22;2357;47.316;-1.348;2022-09-29T08:28:31;11.70;99.90
4687;DHT22;2357;47.316;-1.348;2022-09-29T08:31:01;11.80;99.90
4687;DHT22;2357;47.316;-1.348;2022-09-29T08:33:26;11.90;99.90
4687;DHT22;2357;47.316;-1.348;2022-09-29T08:35:56;11.90;99.90
4687;DHT22;2357;47.316;-1.348;2022-09-29T08:38:23;12.00;99.90
4687;DHT22;2357;47.316;-1.348;2022-09-29T08:40:49;12.00;99.90
4687;DHT22;2357;47.316;-1.348;2022-09-29T08:43:23;12.00;99.90
4687;DHT22;2357;47.316;-1.348;2022-09-29T08:46:10;12.10;99.90
4687;DHT22;2357;47.316;-1.348;2022-09-29T08:48:41;12.20;99.90
4687;DHT22;2357;47.316;-1.348;2022-09-29T08:51:29;12.20;99.90
4687;DHT22;2357;47.316;-1.348;2022-09-29T08:53:58;12.30;99.90
4687;DHT22;2357;47.316;-1.348;2022-09-29T08:56:27;12.30;99.90
4687;DHT22;2357;47.316;-1.348;2022-09-29T08:58:53;12.30;99.90
4687;DHT22;2357;47.316;-1.348;2022-09-29T09:10:13;12.70;99.90
4687;DHT22;2357;47.316;-1.348;2022-09-29T09:12:58;12.80;99.90
4687;DHT22;2357;47.316;-1.348;2022-09-29T09:20:52;13.10;99.90
4687;DHT22;2357;47.316;-1.348;2022-09-29T09:25:57;13.30;99.90
4687;DHT22;2357;47.316;-1.348;2022-09-29T09:28:41;13.40;99.90
4687;DHT22;2357;47.316;-1.348;2022-09-29T09:31:22;13.50;99.90
4687;DHT22;2357;47.316;-1.348;2022-09-29T09:34:13;13.90;99.90
4687;DHT22;2357;47.316;-1.348;2022-09-29T09:36:54;14.10;99.90
4687;DHT22;2357;47.316;-1.348;2022-09-29T09:39:30;14.10;99.90
4687;DHT22;2357;47.316;-1.348;2022-09-29T09:41:59;14.10;99.90
4687;DHT22;2357;47.316;-1.348;2022-09-29T09:44:27;14.10;99.90
4687;DHT22;2357;47.316;-1.348;2022-09-29T09:49:44;14.20;99.90
4687;DHT22;2357;47.316;-1.348;2022-09-29T09:52:21;14.10;99.90
4687;DHT22;2357;47.316;-1.348;2022-09-29T09:54:54;14.20;99.90
4687;DHT22;2357;47.316;-1.348;2022-09-29T09:57:41;14.40;99.90
4687;DHT22;2357;47.316;-1.348;2022-09-29T10:00:24;14.40;99.90
4687;DHT22;2357;47.316;-1.348;2022-09-29T10:02:53;14.40;99.90
4687;DHT22;2357;47.316;-1.348;2022-09-29T10:05:25;14.30;99.90
4687;DHT22;2357;47.316;-1.348;2022-09-29T10:07:54;14.40;99.90
4687;DHT22;2357;47.316;-1.348;2022-09-29T10:10:26;14.40;99.90
4687;DHT22;2357;47.316;-1.348;2022-09-29T10:15:56;14.40;99.90
4687;DHT22;2357;47.316;-1.348;2022-09-29T10:20:48;14.30;99.90
4687;DHT22;2357;47.316;-1.348;2022-09-29T10:25:57;14.30;99.90
4687;DHT22;2357;47.316;-1.348;2022-09-29T10:28:27;14.40;99.90
4687;DHT22;2357;47.316;-1.348;2022-09-29T10:30:55;14.40;99.90
4687;DHT22;2357;47.316;-1.348;2022-09-29T10:33:23;14.60;99.90
4687;DHT22;2357;47.316;-1.348;2022-09-29T10:36:03;14.70;99.90
4687;DHT22;2357;47.316;-1.348;2022-09-29T10:38:30;14.80;99.90
4687;DHT22;2357;47.316;-1.348;2022-09-29T10:41:01;14.70;99.90
4687;DHT22;2357;47.316;-1.348;2022-09-29T10:43:40;14.60;99.90
4687;DHT22;2357;47.316;-1.348;2022-09-29T10:51:36;14.50;99.90
4687;DHT22;2357;47.316;-1.348;2022-09-29T10:54:09;14.70;99.90
4687;DHT22;2357;47.316;-1.348;2022-09-29T10:56:36;15.00;99.90
4687;DHT22;2357;47.316;-1.348;2022-09-29T10:59:02;15.30;99.90
4687;DHT22;2357;47.316;-1.348;2022-09-29T11:01:30;15.40;99.90
4687;DHT22;2357;47.316;-1.348;2022-09-29T11:04:05;15.50;99.90
4687;DHT22;2357;47.316;-1.348;2022-09-29T11:06:38;15.70;99.90
4687;DHT22;2357;47.316;-1.348;2022-09-29T11:09:24;16.00;99.90
4687;DHT22;2357;47.316;-1.348;2022-09-29T11:11:55;15.90;99.90
4687;DHT22;2357;47.316;-1.348;2022-09-29T11:17:36;15.90;99.90
4687;DHT22;2357;47.316;-1.348;2022-09-29T11:20:03;15.80;99.90
4687;DHT22;2357;47.316;-1.348;2022-09-29T11:32:05;15.60;99.90
4687;DHT22;2357;47.316;-1.348;2022-09-29T11:34:54;15.80;99.90
4687;DHT22;2357;47.316;-1.348;2022-09-29T11:45:47;16.70;99.90
4687;DHT22;2357;47.316;-1.348;2022-09-29T11:48:44;17.00;99.90
4687;DHT22;2357;47.316;-1.348;2022-09-29T11:51:29;16.90;99.90
4687;DHT22;2357;47.316;-1.348;2022-09-29T11:54:22;16.50;99.90
4687;DHT22;2357;47.316;-1.348;2022-09-29T11:57:09;16.60;99.90
4687;DHT22;2357;47.316;-1.348;2022-09-29T12:03:06;16.70;99.90
4687;DHT22;2357;47.316;-1.348;2022-09-29T12:08:55;16.40;99.90
4687;DHT22;2357;47.316;-1.348;2022-09-29T12:16:32;16.30;99.90
4687;DHT22;2357;47.316;-1.348;2022-09-29T12:19:09;16.20;99.90
4687;DHT22;2357;47.316;-1.348;2022-09-29T12:21:47;16.10;99.90
4687;DHT22;2357;47.316;-1.348;2022-09-29T12:24:36;15.90;99.90
4687;DHT22;2357;47.316;-1.348;2022-09-29T12:27:28;15.70;99.90
4687;DHT22;2357;47.316;-1.348;2022-09-29T12:32:37;15.60;99.90
4687;DHT22;2357;47.316;-1.348;2022-09-29T12:35:12;15.70;99.90
4687;DHT22;2357;47.316;-1.348;2022-09-29T12:41:00;15.70;99.90
4687;DHT22;2357;47.316;-1.348;2022-09-29T12:43:31;15.80;99.90
4687;DHT22;2357;47.316;-1.348;2022-09-29T12:46:09;15.90;99.90
4687;DHT22;2357;47.316;-1.348;2022-09-29T12:49:00;15.80;99.90
4687;DHT22;2357;47.316;-1.348;2022-09-29T12:51:30;15.80;99.90
4687;DHT22;2357;47.316;-1.348;2022-09-29T13:08:37;15.50;99.90
4687;DHT22;2357;47.316;-1.348;2022-09-29T13:22:37;14.80;99.90
4687;DHT22;2357;47.316;-1.348;2022-09-29T13:28:17;14.60;99.90
4687;DHT22;2357;47.316;-1.348;2022-09-29T13:30:45;14.40;99.90
4687;DHT22;2357;47.316;-1.348;2022-09-29T13:33:22;14.30;99.90
4687;DHT22;2357;47.316;-1.348;2022-09-29T13:35:49;14.20;99.90
4687;DHT22;2357;47.316;-1.348;2022-09-29T13:38:16;14.20;99.90
4687;DHT22;2357;47.316;-1.348;2022-09-29T13:41:15;14.20;99.90
4687;DHT22;2357;47.316;-1.348;2022-09-29T13:51:57;14.70;99.90
4687;DHT22;2357;47.316;-1.348;2022-09-29T13:54:40;14.90;99.90
4687;DHT22;2357;47.316;-1.348;2022-09-29T14:00:10;15.10;99.90
4687;DHT22;2357;47.316;-1.348;2022-09-29T14:02:42;15.30;99.90
4687;DHT22;2357;47.316;-1.348;2022-09-29T14:05:43;15.50;99.90
4687;DHT22;2357;47.316;-1.348;2022-09-29T14:08:19;15.40;99.90
4687;DHT22;2357;47.316;-1.348;2022-09-29T14:10:57;15.40;99.90
4687;DHT22;2357;47.316;-1.348;2022-09-29T14:13:38;15.40;99.90
4687;DHT22;2357;47.316;-1.348;2022-09-29T14:18:44;15.20;99.90
4687;DHT22;2357;47.316;-1.348;2022-09-29T14:21:14;15.10;99.90
4687;DHT22;2357;47.316;-1.348;2022-09-29T14:23:58;15.10;99.90
4687;DHT22;2357;47.316;-1.348;2022-09-29T14:26:47;15.10;99.90
4687;DHT22;2357;47.316;-1.348;2022-09-29T14:29:26;15.10;99.90
4687;DHT22;2357;47.316;-1.348;2022-09-29T14:31:55;15.10;99.90
4687;DHT22;2357;47.316;-1.348;2022-09-29T14:34:25;15.10;99.90
4687;DHT22;2357;47.316;-1.348;2022-09-29T14:36:53;15.00;99.90
4687;DHT22;2357;47.316;-1.348;2022-09-29T14:39:20;14.90;99.90
4687;DHT22;2357;47.316;-1.348;2022-09-29T14:41:47;14.90;99.90
4687;DHT22;2357;47.316;-1.348;2022-09-29T14:44:31;14.90;99.90
4687;DHT22;2357;47.316;-1.348;2022-09-29T14:47:58;15.00;99.90
4687;DHT22;2357;47.316;-1.348;2022-09-29T14:50:52;15.10;99.90
4687;DHT22;2357;47.316;-1.348;2022-09-29T15:04:44;15.10;99.90
4687;DHT22;2357;47.316;-1.348;2022-09-29T15:07:12;14.90;99.90
4687;DHT22;2357;47.316;-1.348;2022-09-29T15:09:45;14.90;99.90
4687;DHT22;2357;47.316;-1.348;2022-09-29T15:12:28;14.90;99.90
4687;DHT22;2357;47.316;-1.348;2022-09-29T15:14:55;14.80;99.90
4687;DHT22;2357;47.316;-1.348;2022-09-29T15:17:47;14.80;99.90
4687;DHT22;2357;47.316;-1.348;2022-09-29T15:28:14;18.80;99.90
4687;DHT22;2357;47.316;-1.348;2022-09-29T15:30:41;21.30;99.90
4687;DHT22;2357;47.316;-1.348;2022-09-29T15:33:25;23.70;99.90
4687;DHT22;2357;47.316;-1.348;2022-09-29T15:36:22;25.30;99.90
4687;DHT22;2357;47.316;-1.348;2022-09-29T15:39:01;25.50;99.90
4687;DHT22;2357;47.316;-1.348;2022-09-29T15:41:30;23.40;99.90
4687;DHT22;2357;47.316;-1.348;2022-09-29T15:44:07;22.20;99.90
4687;DHT22;2357;47.316;-1.348;2022-09-29T15:46:46;21.90;99.90
4687;DHT22;2357;47.316;-1.348;2022-09-29T15:49:20;21.00;99.90
4687;DHT22;2357;47.316;-1.348;2022-09-29T15:52:06;19.70;99.90
4687;DHT22;2357;47.316;-1.348;2022-09-29T15:54:40;18.50;99.90
4687;DHT22;2357;47.316;-1.348;2022-09-29T15:57:29;17.60;99.90
4687;DHT22;2357;47.316;-1.348;2022-09-29T16:03:24;16.60;99.90
4687;DHT22;2357;47.316;-1.348;2022-09-29T16:06:39;16.40;99.90
4687;DHT22;2357;47.316;-1.348;2022-09-29T16:09:05;16.20;99.90
4687;DHT22;2357;47.316;-1.348;2022-09-29T16:11:38;16.10;99.90
4687;DHT22;2357;47.316;-1.348;2022-09-29T16:14:23;16.20;99.90
4687;DHT22;2357;47.316;-1.348;2022-09-29T16:16:50;15.80;99.90
4687;DHT22;2357;47.316;-1.348;2022-09-29T16:19:25;15.70;99.90
4687;DHT22;2357;47.316;-1.348;2022-09-29T16:21:55;15.60;99.90
4687;DHT22;2357;47.316;-1.348;2022-09-29T16:24:29;15.50;99.90
4687;DHT22;2357;47.316;-1.348;2022-09-29T16:26:56;15.40;99.90
4687;DHT22;2357;47.316;-1.348;2022-09-29T16:29:30;15.40;99.90
4687;DHT22;2357;47.316;-1.348;2022-09-29T16:31:58;15.40;99.90
4687;DHT22;2357;47.316;-1.348;2022-09-29T16:34:27;15.40;99.90
4687;DHT22;2357;47.316;-1.348;2022-09-29T16:37:04;15.50;99.90
4687;DHT22;2357;47.316;-1.348;2022-09-29T16:39:42;15.40;99.90
4687;DHT22;2357;47.316;-1.348;2022-09-29T16:42:18;15.30;99.90
4687;DHT22;2357;47.316;-1.348;2022-09-29T16:44:44;15.30;99.90
4687;DHT22;2357;47.316;-1.348;2022-09-29T16:47:12;15.30;99.90
4687;DHT22;2357;47.316;-1.348;2022-09-29T16:52:26;15.10;99.90
4687;DHT22;2357;47.316;-1.348;2022-09-29T16:55:15;15.00;99.90
4687;DHT22;2357;47.316;-1.348;2022-09-29T16:57:53;14.90;99.90
4687;DHT22;2357;47.316;-1.348;2022-09-29T17:00:19;15.00;99.90
4687;DHT22;2357;47.316;-1.348;2022-09-29T17:02:52;14.90;99.90
4687;DHT22;2357;47.316;-1.348;2022-09-29T17:05:20;15.00;99.90
4687;DHT22;2357;47.316;-1.348;2022-09-29T17:07:48;15.00;99.90
4687;DHT22;2357;47.316;-1.348;2022-09-29T17:10:17;15.00;99.90
4687;DHT22;2357;47.316;-1.348;2022-09-29T17:12:43;14.90;99.90
4687;DHT22;2357;47.316;-1.348;2022-09-29T17:15:13;14.80;99.90
4687;DHT22;2357;47.316;-1.348;2022-09-29T17:17:39;14.80;99.90
4687;DHT22;2357;47.316;-1.348;2022-09-29T17:20:12;14.70;99.90
4687;DHT22;2357;47.316;-1.348;2022-09-29T17:22:39;14.60;99.90
4687;DHT22;2357;47.316;-1.348;2022-09-29T17:25:06;14.50;99.90
4687;DHT22;2357;47.316;-1.348;2022-09-29T17:27:32;14.50;99.90
4687;DHT22;2357;47.316;-1.348;2022-09-29T17:30:20;14.50;99.90
4687;DHT22;2357;47.316;-1.348;2022-09-29T17:32:48;14.60;99.90
4687;DHT22;2357;47.316;-1.348;2022-09-29T17:35:15;14.50;99.90
4687;DHT22;2357;47.316;-1.348;2022-09-29T17:37:42;14.40;99.90
4687;DHT22;2357;47.316;-1.348;2022-09-29T17:40:32;14.50;99.90
4687;DHT22;2357;47.316;-1.348;2022-09-29T17:42:59;14.40;99.90
4687;DHT22;2357;47.316;-1.348;2022-09-29T17:45:26;14.40;99.90
4687;DHT22;2357;47.316;-1.348;2022-09-29T17:47:52;14.40;99.90
4687;DHT22;2357;47.316;-1.348;2022-09-29T17:50:34;14.40;99.90
4687;DHT22;2357;47.316;-1.348;2022-09-29T17:53:05;14.40;99.90
4687;DHT22;2357;47.316;-1.348;2022-09-29T17:55:32;14.40;99.90
4687;DHT22;2357;47.316;-1.348;2022-09-29T17:57:59;14.30;99.90
4687;DHT22;2357;47.316;-1.348;2022-09-29T18:00:35;14.30;99.90
4687;DHT22;2357;47.316;-1.348;2022-09-29T18:03:03;14.20;99.90
4687;DHT22;2357;47.316;-1.348;2022-09-29T18:05:29;14.20;99.90
4687;DHT22;2357;47.316;-1.348;2022-09-29T18:07:56;14.20;99.90
4687;DHT22;2357;47.316;-1.348;2022-09-29T18:10:48;14.20;99.90
4687;DHT22;2357;47.316;-1.348;2022-09-29T18:13:14;14.10;99.90
4687;DHT22;2357;47.316;-1.348;2022-09-29T18:15:40;14.10;99.90
4687;DHT22;2357;47.316;-1.348;2022-09-29T18:18:10;14.10;99.90
4687;DHT22;2357;47.316;-1.348;2022-09-29T18:20:37;14.00;99.90
4687;DHT22;2357;47.316;-1.348;2022-09-29T18:23:04;14.00;99.90
4687;DHT22;2357;47.316;-1.348;2022-09-29T18:25:31;14.00;99.90
4687;DHT22;2357;47.316;-1.348;2022-09-29T18:27:58;14.00;99.90
4687;DHT22;2357;47.316;-1.348;2022-09-29T18:30:27;13.90;99.90
4687;DHT22;2357;47.316;-1.348;2022-09-29T18:32:54;13.90;99.90
4687;DHT22;2357;47.316;-1.348;2022-09-29T18:35:22;13.90;99.90
4687;DHT22;2357;47.316;-1.348;2022-09-29T18:37:49;13.90;99.90
4687;DHT22;2357;47.316;-1.348;2022-09-29T18:40:16;13.90;99.90
4687;DHT22;2357;47.316;-1.348;2022-09-29T18:42:47;13.80;99.90
4687;DHT22;2357;47.316;-1.348;2022-09-29T18:45:18;13.80;99.90
4687;DHT22;2357;47.316;-1.348;2022-09-29T18:47:51;13.80;99.90
4687;DHT22;2357;47.316;-1.348;2022-09-29T18:50:21;13.80;99.90
4687;DHT22;2357;47.316;-1.348;2022-09-29T18:52:48;13.80;99.90
4687;DHT22;2357;47.316;-1.348;2022-09-29T18:55:15;13.70;99.90
4687;DHT22;2357;47.316;-1.348;2022-09-29T18:57:45;13.70;99.90
4687;DHT22;2357;47.316;-1.348;2022-09-29T19:00:13;13.60;99.90
4687;DHT22;2357;47.316;-1.348;2022-09-29T19:02:44;13.60;99.90
4687;DHT22;2357;47.316;-1.348;2022-09-29T19:05:24;13.60;99.90
4687;DHT22;2357;47.316;-1.348;2022-09-29T19:07:55;13.50;99.90
4687;DHT22;2357;47.316;-1.348;2022-09-29T19:10:22;13.50;99.90
4687;DHT22;2357;47.316;-1.348;2022-09-29T19:12:48;13.40;99.90
4687;DHT22;2357;47.316;-1.348;2022-09-29T19:15:17;13.40;99.90
4687;DHT22;2357;47.316;-1.348;2022-09-29T19:17:44;13.30;99.90
4687;DHT22;2357;47.316;-1.348;2022-09-29T19:20:15;13.30;99.90
4687;DHT22;2357;47.316;-1.348;2022-09-29T19:22:42;13.20;99.90
4687;DHT22;2357;47.316;-1.348;2022-09-29T19:25:35;12.90;99.90
4687;DHT22;2357;47.316;-1.348;2022-09-29T19:28:03;12.90;99.90
4687;DHT22;2357;47.316;-1.348;2022-09-29T19:30:38;12.90;99.90
4687;DHT22;2357;47.316;-1.348;2022-09-29T19:33:07;12.90;99.90
4687;DHT22;2357;47.316;-1.348;2022-09-29T19:35:33;13.00;99.90
4687;DHT22;2357;47.316;-1.348;2022-09-29T19:37:59;13.00;99.90